sensor_id;sensor_type;location;lat;lon;timestamp;P1;durP1;ratioP1;P2;durP2;ratioP2
74939;SDS011;63505;45.226;37.908;2023-03-14T00:01:57;16.25;;;8.00;;
74939;SDS011;63505;45.226;37.908;2023-03-14T00:04:23;21.35;;;10.38;;
74939;SDS011;63505;45.226;37.908;2023-03-14T00:06:49;16.00;;;7.40;;
74939;SDS011;63505;45.226;37.908;2023-03-14T00:09:16;17.88;;;8.60;;
74939;SDS011;63505;45.226;37.908;2023-03-14T00:11:42;13.98;;;6.78;;
74939;SDS011;63505;45.226;37.908;2023-03-14T00:14:08;14.15;;;8.07;;
74939;SDS011;63505;45.226;37.908;2023-03-14T00:16:34;20.95;;;9.38;;
74939;SDS011;63505;45.226;37.908;2023-03-14T00:19:00;17.13;;;8.75;;
74939;SDS011;63505;45.226;37.908;2023-03-14T00:21:26;15.93;;;8.18;;
74939;SDS011;63505;45.226;37.908;2023-03-14T00:23:52;22.67;;;12.90;;
74939;SDS011;63505;45.226;37.908;2023-03-14T00:26:19;19.83;;;10.65;;
74939;SDS011;63505;45.226;37.908;2023-03-14T00:28:46;7.15;;;3.75;;
74939;SDS011;63505;45.226;37.908;2023-03-14T00:31:16;6.32;;;4.55;;
74939;SDS011;63505;45.226;37.908;2023-03-14T00:33:42;11.20;;;5.65;;
74939;SDS011;63505;45.226;37.908;2023-03-14T00:36:11;16.38;;;5.70;;
74939;SDS011;63505;45.226;37.908;2023-03-14T00:38:44;16.95;;;7.00;;
74939;SDS011;63505;45.226;37.908;2023-03-14T00:41:12;20.88;;;9.88;;
74939;SDS011;63505;45.226;37.908;2023-03-14T00:43:40;21.83;;;11.15;;
74939;SDS011;63505;45.226;37.908;2023-03-14T00:46:07;31.92;;;14.32;;
74939;SDS011;63505;45.226;37.908;2023-03-14T00:48:33;35.42;;;15.43;;
74939;SDS011;63505;45.226;37.908;2023-03-14T00:50:59;25.58;;;13.05;;
74939;SDS011;63505;45.226;37.908;2023-03-14T00:53:26;19.83;;;10.57;;
74939;SDS011;63505;45.226;37.908;2023-03-14T00:55:52;24.83;;;12.98;;
74939;SDS011;63505;45.226;37.908;2023-03-14T00:58:18;21.13;;;12.07;;
74939;SDS011;63505;45.226;37.908;2023-03-14T01:00:45;23.33;;;11.65;;
74939;SDS011;63505;45.226;37.908;2023-03-14T01:03:12;30.30;;;13.18;;
74939;SDS011;63505;45.226;37.908;2023-03-14T01:05:39;40.90;;;14.40;;
74939;SDS011;63505;45.226;37.908;2023-03-14T01:08:05;29.88;;;13.90;;
74939;SDS011;63505;45.226;37.908;2023-03-14T01:10:33;25.42;;;12.90;;
74939;SDS011;63505;45.226;37.908;2023-03-14T01:13:00;22.05;;;12.35;;
74939;SDS011;63505;45.226;37.908;2023-03-14T01:15:28;24.15;;;12.07;;
74939;SDS011;63505;45.226;37.908;2023-03-14T01:17:54;27.48;;;12.73;;
74939;SDS011;63505;45.226;37.908;2023-03-14T01:20:19;23.33;;;10.27;;
74939;SDS011;63505;45.226;37.908;2023-03-14T01:22:45;20.88;;;8.82;;
74939;SDS011;63505;45.226;37.908;2023-03-14T01:25:13;22.27;;;11.02;;
74939;SDS011;63505;45.226;37.908;2023-03-14T01:27:40;21.17;;;10.60;;
74939;SDS011;63505;45.226;37.908;2023-03-14T01:30:07;6.93;;;3.65;;
74939;SDS011;63505;45.226;37.908;2023-03-14T01:32:34;18.55;;;9.07;;
74939;SDS011;63505;45.226;37.908;2023-03-14T01:35:00;18.23;;;9.30;;
74939;SDS011;63505;45.226;37.908;2023-03-14T01:37:26;27.55;;;9.88;;
74939;SDS011;63505;45.226;37.908;2023-03-14T01:39:52;26.98;;;12.18;;
74939;SDS011;63505;45.226;37.908;2023-03-14T01:42:18;21.83;;;10.15;;
74939;SDS011;63505;45.226;37.908;2023-03-14T01:47:24;18.00;;;9.02;;
74939;SDS011;63505;45.226;37.908;2023-03-14T01:49:55;25.02;;;10.48;;
74939;SDS011;63505;45.226;37.908;2023-03-14T01:52:25;22.70;;;11.93;;
74939;SDS011;63505;45.226;37.908;2023-03-14T01:55:03;20.98;;;10.40;;
74939;SDS011;63505;45.226;37.908;2023-03-14T01:57:33;20.90;;;10.13;;
74939;SDS011;63505;45.226;37.908;2023-03-14T02:00:04;27.67;;;13.50;;
74939;SDS011;63505;45.226;37.908;2023-03-14T02:02:44;25.80;;;13.88;;
74939;SDS011;63505;45.226;37.908;2023-03-14T02:05:22;27.40;;;13.57;;
74939;SDS011;63505;45.226;37.908;2023-03-14T02:08:02;24.40;;;10.32;;
74939;SDS011;63505;45.226;37.908;2023-03-14T02:10:42;20.83;;;10.10;;
74939;SDS011;63505;45.226;37.908;2023-03-14T02:13:11;15.13;;;7.70;;
74939;SDS011;63505;45.226;37.908;2023-03-14T02:15:49;16.38;;;8.07;;
74939;SDS011;63505;45.226;37.908;2023-03-14T02:18:40;21.08;;;9.95;;
74939;SDS011;63505;45.226;37.908;2023-03-14T02:21:33;16.38;;;7.30;;
74939;SDS011;63505;45.226;37.908;2023-03-14T02:24:27;23.50;;;7.88;;
74939;SDS011;63505;45.226;37.908;2023-03-14T02:27:09;17.27;;;9.25;;
74939;SDS011;63505;45.226;37.908;2023-03-14T02:29:48;17.90;;;7.32;;
74939;SDS011;63505;45.226;37.908;2023-03-14T02:32:20;8.50;;;6.75;;
74939;SDS011;63505;45.226;37.908;2023-03-14T02:34:53;20.55;;;7.97;;
74939;SDS011;63505;45.226;37.908;2023-03-14T02:37:23;14.95;;;4.80;;
74939;SDS011;63505;45.226;37.908;2023-03-14T02:39:56;16.48;;;9.93;;
74939;SDS011;63505;45.226;37.908;2023-03-14T02:42:22;11.65;;;6.18;;
74939;SDS011;63505;45.226;37.908;2023-03-14T02:47:44;14.00;;;7.30;;
74939;SDS011;63505;45.226;37.908;2023-03-14T02:50:19;11.25;;;5.40;;
74939;SDS011;63505;45.226;37.908;2023-03-14T02:52:47;10.07;;;6.30;;
74939;SDS011;63505;45.226;37.908;2023-03-14T02:55:14;18.33;;;9.55;;
74939;SDS011;63505;45.226;37.908;2023-03-14T02:57:43;14.13;;;6.97;;
74939;SDS011;63505;45.226;37.908;2023-03-14T03:00:10;9.52;;;5.20;;
74939;SDS011;63505;45.226;37.908;2023-03-14T03:02:37;14.88;;;6.88;;
74939;SDS011;63505;45.226;37.908;2023-03-14T03:05:03;17.13;;;6.07;;
74939;SDS011;63505;45.226;37.908;2023-03-14T03:07:29;19.60;;;8.30;;
74939;SDS011;63505;45.226;37.908;2023-03-14T03:09:56;9.68;;;4.95;;
74939;SDS011;63505;45.226;37.908;2023-03-14T03:12:22;13.63;;;7.45;;
74939;SDS011;63505;45.226;37.908;2023-03-14T03:14:48;11.52;;;6.10;;
74939;SDS011;63505;45.226;37.908;2023-03-14T03:17:14;18.65;;;9.27;;
74939;SDS011;63505;45.226;37.908;2023-03-14T03:19:40;11.00;;;6.28;;
74939;SDS011;63505;45.226;37.908;2023-03-14T03:22:06;7.80;;;3.53;;
74939;SDS011;63505;45.226;37.908;2023-03-14T03:24:32;8.57;;;5.13;;
74939;SDS011;63505;45.226;37.908;2023-03-14T03:27:00;12.57;;;6.95;;
74939;SDS011;63505;45.226;37.908;2023-03-14T03:29:26;13.13;;;5.60;;
74939;SDS011;63505;45.226;37.908;2023-03-14T03:31:53;10.13;;;5.32;;
74939;SDS011;63505;45.226;37.908;2023-03-14T03:34:19;15.50;;;8.25;;
74939;SDS011;63505;45.226;37.908;2023-03-14T03:36:48;9.93;;;4.80;;
74939;SDS011;63505;45.226;37.908;2023-03-14T03:39:14;9.18;;;5.25;;
74939;SDS011;63505;45.226;37.908;2023-03-14T03:41:40;13.63;;;7.63;;
74939;SDS011;63505;45.226;37.908;2023-03-14T03:44:06;11.85;;;6.47;;
74939;SDS011;63505;45.226;37.908;2023-03-14T03:46:32;12.77;;;5.45;;
74939;SDS011;63505;45.226;37.908;2023-03-14T03:48:59;21.25;;;9.32;;
74939;SDS011;63505;45.226;37.908;2023-03-14T03:51:26;16.25;;;7.75;;
74939;SDS011;63505;45.226;37.908;2023-03-14T03:53:53;8.77;;;3.55;;
74939;SDS011;63505;45.226;37.908;2023-03-14T03:56:26;9.30;;;4.05;;
74939;SDS011;63505;45.226;37.908;2023-03-14T03:58:52;10.60;;;6.22;;
74939;SDS011;63505;45.226;37.908;2023-03-14T04:01:18;10.38;;;5.07;;
74939;SDS011;63505;45.226;37.908;2023-03-14T04:03:50;9.38;;;4.97;;
74939;SDS011;63505;45.226;37.908;2023-03-14T04:06:17;15.80;;;5.85;;
74939;SDS011;63505;45.226;37.908;2023-03-14T04:08:45;8.57;;;3.92;;
74939;SDS011;63505;45.226;37.908;2023-03-14T04:11:24;6.72;;;3.45;;
74939;SDS011;63505;45.226;37.908;2023-03-14T04:14:02;15.18;;;7.32;;
74939;SDS011;63505;45.226;37.908;2023-03-14T04:16:29;16.85;;;6.85;;
74939;SDS011;63505;45.226;37.908;2023-03-14T04:19:03;11.50;;;5.38;;
74939;SDS011;63505;45.226;37.908;2023-03-14T04:21:30;14.00;;;6.47;;
74939;SDS011;63505;45.226;37.908;2023-03-14T04:23:57;9.70;;;4.50;;
74939;SDS011;63505;45.226;37.908;2023-03-14T04:26:26;12.93;;;5.03;;
74939;SDS011;63505;45.226;37.908;2023-03-14T04:28:52;15.18;;;6.47;;
74939;SDS011;63505;45.226;37.908;2023-03-14T04:31:20;8.38;;;4.63;;
74939;SDS011;63505;45.226;37.908;2023-03-14T04:33:48;13.85;;;7.10;;
74939;SDS011;63505;45.226;37.908;2023-03-14T04:36:20;10.25;;;6.07;;
74939;SDS011;63505;45.226;37.908;2023-03-14T04:38:46;16.23;;;7.55;;
74939;SDS011;63505;45.226;37.908;2023-03-14T04:41:16;13.80;;;5.97;;
74939;SDS011;63505;45.226;37.908;2023-03-14T04:43:42;8.20;;;4.10;;
74939;SDS011;63505;45.226;37.908;2023-03-14T04:46:10;10.68;;;3.97;;
74939;SDS011;63505;45.226;37.908;2023-03-14T04:48:37;10.27;;;4.10;;
74939;SDS011;63505;45.226;37.908;2023-03-14T04:51:04;8.15;;;4.60;;
74939;SDS011;63505;45.226;37.908;2023-03-14T04:53:32;7.18;;;3.63;;
74939;SDS011;63505;45.226;37.908;2023-03-14T04:56:03;9.82;;;5.32;;
74939;SDS011;63505;45.226;37.908;2023-03-14T04:58:35;22.35;;;7.75;;
74939;SDS011;63505;45.226;37.908;2023-03-14T05:01:03;11.20;;;7.00;;
74939;SDS011;63505;45.226;37.908;2023-03-14T05:03:36;17.67;;;5.50;;
74939;SDS011;63505;45.226;37.908;2023-03-14T05:06:26;3.00;;;2.08;;
74939;SDS011;63505;45.226;37.908;2023-03-14T05:09:15;9.00;;;3.65;;
74939;SDS011;63505;45.226;37.908;2023-03-14T05:12:00;10.05;;;4.90;;
74939;SDS011;63505;45.226;37.908;2023-03-14T05:14:45;10.27;;;4.57;;
74939;SDS011;63505;45.226;37.908;2023-03-14T05:17:47;6.85;;;3.92;;
74939;SDS011;63505;45.226;37.908;2023-03-14T05:20:35;17.35;;;9.20;;
74939;SDS011;63505;45.226;37.908;2023-03-14T05:23:19;9.23;;;3.72;;
74939;SDS011;63505;45.226;37.908;2023-03-14T05:26:04;8.63;;;4.57;;
74939;SDS011;63505;45.226;37.908;2023-03-14T05:28:37;8.75;;;4.93;;
74939;SDS011;63505;45.226;37.908;2023-03-14T05:31:10;14.75;;;5.47;;
74939;SDS011;63505;45.226;37.908;2023-03-14T05:34:02;13.43;;;6.35;;
74939;SDS011;63505;45.226;37.908;2023-03-14T05:36:28;13.55;;;5.45;;
74939;SDS011;63505;45.226;37.908;2023-03-14T05:39:00;5.07;;;2.90;;
74939;SDS011;63505;45.226;37.908;2023-03-14T05:41:49;8.68;;;3.75;;
74939;SDS011;63505;45.226;37.908;2023-03-14T05:44:41;6.70;;;3.78;;
74939;SDS011;63505;45.226;37.908;2023-03-14T05:47:27;8.57;;;3.63;;
74939;SDS011;63505;45.226;37.908;2023-03-14T05:50:19;11.60;;;5.93;;
74939;SDS011;63505;45.226;37.908;2023-03-14T05:53:11;7.75;;;3.67;;
74939;SDS011;63505;45.226;37.908;2023-03-14T05:55:57;12.85;;;4.90;;
74939;SDS011;63505;45.226;37.908;2023-03-14T05:58:42;9.60;;;4.13;;
74939;SDS011;63505;45.226;37.908;2023-03-14T06:01:31;8.68;;;5.07;;
74939;SDS011;63505;45.226;37.908;2023-03-14T06:04:19;8.30;;;3.90;;
74939;SDS011;63505;45.226;37.908;2023-03-14T06:06:49;9.70;;;5.38;;
74939;SDS011;63505;45.226;37.908;2023-03-14T06:09:16;7.18;;;3.45;;
74939;SDS011;63505;45.226;37.908;2023-03-14T06:11:44;8.40;;;4.53;;
74939;SDS011;63505;45.226;37.908;2023-03-14T06:14:11;7.20;;;3.50;;
74939;SDS011;63505;45.226;37.908;2023-03-14T06:16:41;10.07;;;3.55;;
74939;SDS011;63505;45.226;37.908;2023-03-14T06:19:07;5.85;;;3.55;;
74939;SDS011;63505;45.226;37.908;2023-03-14T06:21:33;10.68;;;4.63;;
74939;SDS011;63505;45.226;37.908;2023-03-14T06:23:59;14.82;;;7.57;;
74939;SDS011;63505;45.226;37.908;2023-03-14T06:26:27;8.02;;;5.03;;
74939;SDS011;63505;45.226;37.908;2023-03-14T06:28:54;10.90;;;5.28;;
74939;SDS011;63505;45.226;37.908;2023-03-14T06:31:20;5.20;;;3.30;;
74939;SDS011;63505;45.226;37.908;2023-03-14T06:33:52;5.78;;;2.72;;
74939;SDS011;63505;45.226;37.908;2023-03-14T06:36:19;10.27;;;4.40;;
74939;SDS011;63505;45.226;37.908;2023-03-14T06:38:46;9.90;;;5.80;;
74939;SDS011;63505;45.226;37.908;2023-03-14T06:41:12;9.75;;;5.00;;
74939;SDS011;63505;45.226;37.908;2023-03-14T06:43:41;5.20;;;2.60;;
74939;SDS011;63505;45.226;37.908;2023-03-14T06:46:08;4.10;;;2.08;;
74939;SDS011;63505;45.226;37.908;2023-03-14T06:48:37;15.27;;;2.78;;
74939;SDS011;63505;45.226;37.908;2023-03-14T06:51:03;8.63;;;3.50;;
74939;SDS011;63505;45.226;37.908;2023-03-14T06:53:28;4.70;;;2.80;;
74939;SDS011;63505;45.226;37.908;2023-03-14T06:55:57;12.93;;;5.95;;
74939;SDS011;63505;45.226;37.908;2023-03-14T06:58:25;4.70;;;2.08;;
74939;SDS011;63505;45.226;37.908;2023-03-14T07:00:52;7.65;;;3.47;;
74939;SDS011;63505;45.226;37.908;2023-03-14T07:03:22;7.85;;;3.67;;
74939;SDS011;63505;45.226;37.908;2023-03-14T07:05:51;10.38;;;4.32;;
74939;SDS011;63505;45.226;37.908;2023-03-14T07:08:18;5.55;;;2.97;;
74939;SDS011;63505;45.226;37.908;2023-03-14T07:10:44;6.50;;;3.65;;
74939;SDS011;63505;45.226;37.908;2023-03-14T07:13:10;6.40;;;3.28;;
74939;SDS011;63505;45.226;37.908;2023-03-14T07:15:47;5.60;;;3.03;;
74939;SDS011;63505;45.226;37.908;2023-03-14T07:18:13;6.18;;;3.30;;
74939;SDS011;63505;45.226;37.908;2023-03-14T07:20:39;10.02;;;4.03;;
74939;SDS011;63505;45.226;37.908;2023-03-14T07:23:06;7.45;;;3.75;;
74939;SDS011;63505;45.226;37.908;2023-03-14T07:25:44;5.75;;;2.53;;
74939;SDS011;63505;45.226;37.908;2023-03-14T07:28:11;12.18;;;4.55;;
74939;SDS011;63505;45.226;37.908;2023-03-14T07:30:39;6.45;;;3.38;;
74939;SDS011;63505;45.226;37.908;2023-03-14T07:33:12;3.72;;;1.83;;
74939;SDS011;63505;45.226;37.908;2023-03-14T07:35:38;8.13;;;4.07;;
74939;SDS011;63505;45.226;37.908;2023-03-14T07:38:04;5.68;;;3.28;;
74939;SDS011;63505;45.226;37.908;2023-03-14T07:40:36;6.03;;;4.10;;
74939;SDS011;63505;45.226;37.908;2023-03-14T07:43:03;7.60;;;4.20;;
74939;SDS011;63505;45.226;37.908;2023-03-14T07:45:55;7.75;;;2.85;;
74939;SDS011;63505;45.226;37.908;2023-03-14T07:48:21;5.28;;;2.85;;
74939;SDS011;63505;45.226;37.908;2023-03-14T07:50:50;7.30;;;4.03;;
74939;SDS011;63505;45.226;37.908;2023-03-14T07:53:17;5.97;;;3.50;;
74939;SDS011;63505;45.226;37.908;2023-03-14T07:55:43;6.93;;;4.15;;
74939;SDS011;63505;45.226;37.908;2023-03-14T07:58:09;8.50;;;3.75;;
74939;SDS011;63505;45.226;37.908;2023-03-14T08:00:35;7.05;;;2.92;;
74939;SDS011;63505;45.226;37.908;2023-03-14T08:03:01;4.68;;;2.97;;
74939;SDS011;63505;45.226;37.908;2023-03-14T08:05:27;10.55;;;3.35;;
74939;SDS011;63505;45.226;37.908;2023-03-14T08:07:53;10.30;;;5.15;;
74939;SDS011;63505;45.226;37.908;2023-03-14T08:10:18;5.78;;;3.20;;
74939;SDS011;63505;45.226;37.908;2023-03-14T08:12:54;4.35;;;2.70;;
74939;SDS011;63505;45.226;37.908;2023-03-14T08:15:22;3.63;;;2.63;;
74939;SDS011;63505;45.226;37.908;2023-03-14T08:17:48;3.50;;;1.80;;
74939;SDS011;63505;45.226;37.908;2023-03-14T08:20:20;5.65;;;3.83;;
74939;SDS011;63505;45.226;37.908;2023-03-14T08:22:47;6.05;;;2.42;;
74939;SDS011;63505;45.226;37.908;2023-03-14T08:25:13;5.95;;;3.50;;
74939;SDS011;63505;45.226;37.908;2023-03-14T08:27:40;4.32;;;2.65;;
74939;SDS011;63505;45.226;37.908;2023-03-14T08:30:08;8.98;;;2.97;;
74939;SDS011;63505;45.226;37.908;2023-03-14T08:32:36;5.22;;;2.78;;
74939;SDS011;63505;45.226;37.908;2023-03-14T08:35:03;3.97;;;1.88;;
74939;SDS011;63505;45.226;37.908;2023-03-14T08:37:31;4.90;;;2.80;;
74939;SDS011;63505;45.226;37.908;2023-03-14T08:39:57;7.32;;;2.85;;
74939;SDS011;63505;45.226;37.908;2023-03-14T08:42:24;4.85;;;2.63;;
74939;SDS011;63505;45.226;37.908;2023-03-14T08:44:50;5.80;;;3.17;;
74939;SDS011;63505;45.226;37.908;2023-03-14T08:47:17;3.70;;;2.40;;
74939;SDS011;63505;45.226;37.908;2023-03-14T08:49:42;10.32;;;3.45;;
74939;SDS011;63505;45.226;37.908;2023-03-14T08:52:08;4.88;;;2.47;;
74939;SDS011;63505;45.226;37.908;2023-03-14T08:54:34;4.43;;;2.50;;
74939;SDS011;63505;45.226;37.908;2023-03-14T08:57:00;5.78;;;2.35;;
74939;SDS011;63505;45.226;37.908;2023-03-14T08:59:26;3.45;;;1.52;;
74939;SDS011;63505;45.226;37.908;2023-03-14T09:01:52;7.57;;;3.95;;
74939;SDS011;63505;45.226;37.908;2023-03-14T09:04:19;10.75;;;4.45;;
74939;SDS011;63505;45.226;37.908;2023-03-14T09:06:46;6.50;;;1.42;;
74939;SDS011;63505;45.226;37.908;2023-03-14T09:09:12;4.22;;;2.30;;
74939;SDS011;63505;45.226;37.908;2023-03-14T09:11:39;8.02;;;2.53;;
74939;SDS011;63505;45.226;37.908;2023-03-14T09:14:05;3.47;;;1.33;;
74939;SDS011;63505;45.226;37.908;2023-03-14T09:16:33;3.00;;;1.35;;
74939;SDS011;63505;45.226;37.908;2023-03-14T09:18:59;4.25;;;2.45;;
74939;SDS011;63505;45.226;37.908;2023-03-14T09:21:25;5.28;;;1.60;;
74939;SDS011;63505;45.226;37.908;2023-03-14T09:23:52;8.57;;;2.22;;
74939;SDS011;63505;45.226;37.908;2023-03-14T09:26:19;2.53;;;1.17;;
74939;SDS011;63505;45.226;37.908;2023-03-14T09:28:45;4.20;;;2.50;;
74939;SDS011;63505;45.226;37.908;2023-03-14T09:31:11;2.80;;;1.52;;
74939;SDS011;63505;45.226;37.908;2023-03-14T09:33:37;4.82;;;2.38;;
74939;SDS011;63505;45.226;37.908;2023-03-14T09:36:04;4.13;;;2.72;;
74939;SDS011;63505;45.226;37.908;2023-03-14T09:38:30;5.85;;;2.65;;
74939;SDS011;63505;45.226;37.908;2023-03-14T09:40:59;4.18;;;2.35;;
74939;SDS011;63505;45.226;37.908;2023-03-14T09:43:27;5.63;;;3.58;;
74939;SDS011;63505;45.226;37.908;2023-03-14T09:45:56;5.10;;;2.70;;
74939;SDS011;63505;45.226;37.908;2023-03-14T09:48:29;3.70;;;2.05;;
74939;SDS011;63505;45.226;37.908;2023-03-14T09:50:58;4.57;;;2.28;;
74939;SDS011;63505;45.226;37.908;2023-03-14T09:53:39;6.20;;;3.20;;
74939;SDS011;63505;45.226;37.908;2023-03-14T09:58:44;5.65;;;2.63;;
74939;SDS011;63505;45.226;37.908;2023-03-14T10:01:15;5.35;;;2.17;;
74939;SDS011;63505;45.226;37.908;2023-03-14T10:03:45;4.10;;;2.45;;
74939;SDS011;63505;45.226;37.908;2023-03-14T10:06:13;4.32;;;2.33;;
74939;SDS011;63505;45.226;37.908;2023-03-14T10:08:43;4.28;;;1.88;;
74939;SDS011;63505;45.226;37.908;2023-03-14T10:11:17;3.85;;;1.63;;
74939;SDS011;63505;45.226;37.908;2023-03-14T10:13:47;3.63;;;1.60;;
74939;SDS011;63505;45.226;37.908;2023-03-14T10:16:14;5.72;;;2.88;;
74939;SDS011;63505;45.226;37.908;2023-03-14T10:18:44;4.35;;;1.75;;
74939;SDS011;63505;45.226;37.908;2023-03-14T10:21:26;5.05;;;2.55;;
74939;SDS011;63505;45.226;37.908;2023-03-14T10:23:54;6.65;;;2.80;;
74939;SDS011;63505;45.226;37.908;2023-03-14T10:26:24;5.30;;;2.33;;
74939;SDS011;63505;45.226;37.908;2023-03-14T10:28:53;4.28;;;1.92;;
74939;SDS011;63505;45.226;37.908;2023-03-14T10:31:45;5.35;;;2.40;;
74939;SDS011;63505;45.226;37.908;2023-03-14T10:34:27;6.07;;;1.73;;
74939;SDS011;63505;45.226;37.908;2023-03-14T10:36:56;5.72;;;2.05;;
74939;SDS011;63505;45.226;37.908;2023-03-14T10:39:46;1.83;;;1.00;;
74939;SDS011;63505;45.226;37.908;2023-03-14T10:42:22;2.53;;;1.67;;
74939;SDS011;63505;45.226;37.908;2023-03-14T10:44:55;3.60;;;1.50;;
74939;SDS011;63505;45.226;37.908;2023-03-14T10:49:51;4.68;;;2.00;;
74939;SDS011;63505;45.226;37.908;2023-03-14T10:54:49;7.20;;;2.67;;
74939;SDS011;63505;45.226;37.908;2023-03-14T10:57:20;5.05;;;2.95;;
74939;SDS011;63505;45.226;37.908;2023-03-14T10:59:46;3.30;;;1.55;;
74939;SDS011;63505;45.226;37.908;2023-03-14T11:07:52;3.15;;;1.52;;
74939;SDS011;63505;45.226;37.908;2023-03-14T11:10:40;5.82;;;2.53;;
74939;SDS011;63505;45.226;37.908;2023-03-14T11:13:24;6.32;;;3.45;;
74939;SDS011;63505;45.226;37.908;2023-03-14T11:21:41;5.22;;;2.08;;
74939;SDS011;63505;45.226;37.908;2023-03-14T11:24:44;4.53;;;2.85;;
74939;SDS011;63505;45.226;37.908;2023-03-14T11:27:17;2.88;;;1.88;;
74939;SDS011;63505;45.226;37.908;2023-03-14T11:29:50;5.88;;;2.70;;
74939;SDS011;63505;45.226;37.908;2023-03-14T11:34:50;2.97;;;1.17;;
74939;SDS011;63505;45.226;37.908;2023-03-14T11:37:28;3.67;;;2.38;;
74939;SDS011;63505;45.226;37.908;2023-03-14T11:40:13;3.30;;;1.52;;
74939;SDS011;63505;45.226;37.908;2023-03-14T11:42:50;5.32;;;2.53;;
74939;SDS011;63505;45.226;37.908;2023-03-14T11:45:30;1.85;;;0.90;;
74939;SDS011;63505;45.226;37.908;2023-03-14T11:56:04;7.63;;;1.77;;
74939;SDS011;63505;45.226;37.908;2023-03-14T11:58:36;6.55;;;1.98;;
74939;SDS011;63505;45.226;37.908;2023-03-14T12:01:08;3.22;;;1.63;;
74939;SDS011;63505;45.226;37.908;2023-03-14T12:03:43;2.67;;;1.65;;
74939;SDS011;63505;45.226;37.908;2023-03-14T12:09:16;5.60;;;3.35;;
74939;SDS011;63505;45.226;37.908;2023-03-14T12:14:23;4.32;;;2.40;;
74939;SDS011;63505;45.226;37.908;2023-03-14T12:17:39;3.58;;;1.35;;
74939;SDS011;63505;45.226;37.908;2023-03-14T12:22:42;5.63;;;3.38;;
74939;SDS011;63505;45.226;37.908;2023-03-14T12:25:22;4.30;;;1.92;;
74939;SDS011;63505;45.226;37.908;2023-03-14T12:30:32;3.08;;;1.70;;
74939;SDS011;63505;45.226;37.908;2023-03-14T12:38:27;3.42;;;1.52;;
74939;SDS011;63505;45.226;37.908;2023-03-14T12:43:39;9.30;;;2.00;;
74939;SDS011;63505;45.226;37.908;2023-03-14T12:46:18;4.60;;;1.92;;
74939;SDS011;63505;45.226;37.908;2023-03-14T12:51:39;5.75;;;1.90;;
74939;SDS011;63505;45.226;37.908;2023-03-14T12:56:55;3.50;;;2.03;;
74939;SDS011;63505;45.226;37.908;2023-03-14T13:00:11;4.43;;;1.83;;
74939;SDS011;63505;45.226;37.908;2023-03-14T13:02:41;5.30;;;2.58;;
74939;SDS011;63505;45.226;37.908;2023-03-14T13:05:09;3.63;;;2.20;;
74939;SDS011;63505;45.226;37.908;2023-03-14T13:15:29;2.95;;;1.98;;
74939;SDS011;63505;45.226;37.908;2023-03-14T13:18:01;4.32;;;2.15;;
74939;SDS011;63505;45.226;37.908;2023-03-14T13:23:29;2.70;;;1.42;;
74939;SDS011;63505;45.226;37.908;2023-03-14T13:28:25;3.92;;;2.65;;
74939;SDS011;63505;45.226;37.908;2023-03-14T13:31:01;1.95;;;1.27;;
74939;SDS011;63505;45.226;37.908;2023-03-14T13:33:28;5.32;;;1.92;;
74939;SDS011;63505;45.226;37.908;2023-03-14T13:35:58;3.55;;;1.85;;
74939;SDS011;63505;45.226;37.908;2023-03-14T13:38:29;6.18;;;2.17;;
74939;SDS011;63505;45.226;37.908;2023-03-14T13:43:40;3.25;;;1.90;;
74939;SDS011;63505;45.226;37.908;2023-03-14T13:46:16;3.65;;;1.33;;
74939;SDS011;63505;45.226;37.908;2023-03-14T13:48:50;6.03;;;2.47;;
74939;SDS011;63505;45.226;37.908;2023-03-14T13:51:20;3.45;;;1.70;;
74939;SDS011;63505;45.226;37.908;2023-03-14T13:53:48;4.25;;;2.15;;
74939;SDS011;63505;45.226;37.908;2023-03-14T13:56:26;4.63;;;1.83;;
74939;SDS011;63505;45.226;37.908;2023-03-14T13:58:54;4.35;;;1.50;;
74939;SDS011;63505;45.226;37.908;2023-03-14T14:01:30;3.58;;;1.73;;
74939;SDS011;63505;45.226;37.908;2023-03-14T14:03:58;4.20;;;1.88;;
74939;SDS011;63505;45.226;37.908;2023-03-14T14:06:33;5.18;;;2.90;;
74939;SDS011;63505;45.226;37.908;2023-03-14T14:09:10;4.35;;;1.95;;
74939;SDS011;63505;45.226;37.908;2023-03-14T14:11:51;3.42;;;1.92;;
74939;SDS011;63505;45.226;37.908;2023-03-14T14:16:57;3.15;;;1.83;;
74939;SDS011;63505;45.226;37.908;2023-03-14T14:19:26;2.40;;;1.33;;
74939;SDS011;63505;45.226;37.908;2023-03-14T14:21:56;4.15;;;2.38;;
74939;SDS011;63505;45.226;37.908;2023-03-14T14:24:23;3.60;;;2.13;;
74939;SDS011;63505;45.226;37.908;2023-03-14T14:26:54;2.65;;;1.60;;
74939;SDS011;63505;45.226;37.908;2023-03-14T14:29:29;7.93;;;1.92;;
74939;SDS011;63505;45.226;37.908;2023-03-14T14:32:02;2.83;;;1.63;;
74939;SDS011;63505;45.226;37.908;2023-03-14T14:37:17;1.90;;;1.15;;
74939;SDS011;63505;45.226;37.908;2023-03-14T14:39:45;5.32;;;2.13;;
74939;SDS011;63505;45.226;37.908;2023-03-14T14:42:14;4.68;;;1.77;;
74939;SDS011;63505;45.226;37.908;2023-03-14T14:44:47;4.78;;;1.95;;
74939;SDS011;63505;45.226;37.908;2023-03-14T14:47:25;4.03;;;2.35;;
74939;SDS011;63505;45.226;37.908;2023-03-14T14:49:53;3.47;;;1.63;;
74939;SDS011;63505;45.226;37.908;2023-03-14T14:52:21;5.88;;;2.35;;
74939;SDS011;63505;45.226;37.908;2023-03-14T14:55:00;6.82;;;1.92;;
74939;SDS011;63505;45.226;37.908;2023-03-14T14:57:33;3.03;;;1.65;;
74939;SDS011;63505;45.226;37.908;2023-03-14T15:00:06;2.50;;;1.48;;
74939;SDS011;63505;45.226;37.908;2023-03-14T15:02:41;3.20;;;1.50;;
74939;SDS011;63505;45.226;37.908;2023-03-14T15:05:17;4.22;;;2.15;;
74939;SDS011;63505;45.226;37.908;2023-03-14T15:07:48;3.03;;;2.05;;
74939;SDS011;63505;45.226;37.908;2023-03-14T15:10:17;3.72;;;1.45;;
74939;SDS011;63505;45.226;37.908;2023-03-14T15:12:45;4.75;;;2.35;;
74939;SDS011;63505;45.226;37.908;2023-03-14T15:15:12;2.13;;;1.23;;
74939;SDS011;63505;45.226;37.908;2023-03-14T15:17:39;5.40;;;1.92;;
74939;SDS011;63505;45.226;37.908;2023-03-14T15:20:05;2.03;;;1.35;;
74939;SDS011;63505;45.226;37.908;2023-03-14T15:22:36;2.35;;;1.15;;
74939;SDS011;63505;45.226;37.908;2023-03-14T15:25:01;4.63;;;1.90;;
74939;SDS011;63505;45.226;37.908;2023-03-14T15:27:28;2.17;;;1.00;;
74939;SDS011;63505;45.226;37.908;2023-03-14T15:29:55;4.63;;;2.08;;
74939;SDS011;63505;45.226;37.908;2023-03-14T15:32:21;3.72;;;2.22;;
74939;SDS011;63505;45.226;37.908;2023-03-14T15:34:47;2.58;;;1.35;;
74939;SDS011;63505;45.226;37.908;2023-03-14T15:37:13;2.55;;;1.40;;
74939;SDS011;63505;45.226;37.908;2023-03-14T15:39:44;6.40;;;2.58;;
74939;SDS011;63505;45.226;37.908;2023-03-14T15:42:10;3.45;;;1.88;;
74939;SDS011;63505;45.226;37.908;2023-03-14T15:44:36;2.97;;;1.55;;
74939;SDS011;63505;45.226;37.908;2023-03-14T15:47:04;5.72;;;2.78;;
74939;SDS011;63505;45.226;37.908;2023-03-14T15:49:31;2.75;;;1.10;;
74939;SDS011;63505;45.226;37.908;2023-03-14T15:51:58;1.98;;;0.90;;
74939;SDS011;63505;45.226;37.908;2023-03-14T15:54:24;3.75;;;1.92;;
74939;SDS011;63505;45.226;37.908;2023-03-14T15:56:56;3.40;;;1.65;;
74939;SDS011;63505;45.226;37.908;2023-03-14T15:59:23;2.22;;;1.38;;
74939;SDS011;63505;45.226;37.908;2023-03-14T16:01:50;4.28;;;1.83;;
74939;SDS011;63505;45.226;37.908;2023-03-14T16:04:16;3.33;;;1.52;;
74939;SDS011;63505;45.226;37.908;2023-03-14T16:06:42;3.67;;;1.33;;
74939;SDS011;63505;45.226;37.908;2023-03-14T16:09:10;9.80;;;1.80;;
74939;SDS011;63505;45.226;37.908;2023-03-14T16:11:39;4.55;;;2.17;;